sensor_id;sensor_type;location;lat;lon;timestamp;P1;durP1;ratioP1;P2;durP2;ratioP2
32130;SDS011;18639;50.716;7.086;2023-06-26T00:00:02;3.88;;;2.30;;
32130;SDS011;18639;50.716;7.086;2023-06-26T00:05:33;4.72;;;2.40;;
32130;SDS011;18639;50.716;7.086;2023-06-26T00:07:59;4.00;;;2.15;;
32130;SDS011;18639;50.716;7.086;2023-06-26T00:10:28;5.35;;;2.58;;
32130;SDS011;18639;50.716;7.086;2023-06-26T00:12:54;7.20;;;2.83;;
32130;SDS011;18639;50.716;7.086;2023-06-26T00:15:19;4.45;;;2.38;;
32130;SDS011;18639;50.716;7.086;2023-06-26T00:17:45;3.80;;;2.10;;
32130;SDS011;18639;50.716;7.086;2023-06-26T00:20:10;4.07;;;2.33;;
32130;SDS011;18639;50.716;7.086;2023-06-26T00:22:36;5.65;;;2.33;;
32130;SDS011;18639;50.716;7.086;2023-06-26T00:25:06;3.47;;;2.22;;
32130;SDS011;18639;50.716;7.086;2023-06-26T00:27:32;6.18;;;2.40;;
32130;SDS011;18639;50.716;7.086;2023-06-26T00:29:57;4.28;;;2.30;;
32130;SDS011;18639;50.716;7.086;2023-06-26T00:32:23;5.65;;;2.40;;
32130;SDS011;18639;50.716;7.086;2023-06-26T00:34:48;5.82;;;2.17;;
32130;SDS011;18639;50.716;7.086;2023-06-26T00:37:13;6.22;;;2.55;;
32130;SDS011;18639;50.716;7.086;2023-06-26T00:39:39;4.20;;;2.38;;
32130;SDS011;18639;50.716;7.086;2023-06-26T00:42:07;3.08;;;2.10;;
32130;SDS011;18639;50.716;7.086;2023-06-26T00:44:33;5.65;;;2.67;;
32130;SDS011;18639;50.716;7.086;2023-06-26T00:46:59;3.55;;;2.17;;
32130;SDS011;18639;50.716;7.086;2023-06-26T00:49:25;3.67;;;2.28;;
32130;SDS011;18639;50.716;7.086;2023-06-26T00:51:51;5.25;;;2.47;;
32130;SDS011;18639;50.716;7.086;2023-06-26T00:54:20;5.05;;;2.15;;
32130;SDS011;18639;50.716;7.086;2023-06-26T00:56:47;4.53;;;2.33;;
32130;SDS011;18639;50.716;7.086;2023-06-26T01:02:09;3.65;;;2.08;;
32130;SDS011;18639;50.716;7.086;2023-06-26T01:04:44;4.65;;;2.38;;
32130;SDS011;18639;50.716;7.086;2023-06-26T01:07:14;4.70;;;2.35;;
32130;SDS011;18639;50.716;7.086;2023-06-26T01:09:41;3.42;;;2.03;;
32130;SDS011;18639;50.716;7.086;2023-06-26T01:12:07;4.95;;;2.45;;
32130;SDS011;18639;50.716;7.086;2023-06-26T01:14:38;3.75;;;2.50;;
32130;SDS011;18639;50.716;7.086;2023-06-26T01:17:04;3.85;;;2.20;;
32130;SDS011;18639;50.716;7.086;2023-06-26T01:19:31;5.18;;;2.30;;
32130;SDS011;18639;50.716;7.086;2023-06-26T01:25:01;4.85;;;2.45;;
32130;SDS011;18639;50.716;7.086;2023-06-26T01:27:37;3.35;;;2.38;;
32130;SDS011;18639;50.716;7.086;2023-06-26T01:30:03;6.63;;;2.25;;
32130;SDS011;18639;50.716;7.086;2023-06-26T01:32:30;5.07;;;2.88;;
32130;SDS011;18639;50.716;7.086;2023-06-26T01:34:57;4.47;;;2.28;;
32130;SDS011;18639;50.716;7.086;2023-06-26T01:37:23;4.35;;;2.17;;
32130;SDS011;18639;50.716;7.086;2023-06-26T01:39:48;3.72;;;2.33;;
32130;SDS011;18639;50.716;7.086;2023-06-26T01:45:37;4.53;;;2.33;;
32130;SDS011;18639;50.716;7.086;2023-06-26T01:54:30;5.35;;;2.47;;
32130;SDS011;18639;50.716;7.086;2023-06-26T01:57:02;2.63;;;1.80;;
32130;SDS011;18639;50.716;7.086;2023-06-26T01:59:29;4.25;;;2.00;;
32130;SDS011;18639;50.716;7.086;2023-06-26T02:01:57;3.67;;;1.92;;
32130;SDS011;18639;50.716;7.086;2023-06-26T02:04:25;3.67;;;2.10;;
32130;SDS011;18639;50.716;7.086;2023-06-26T02:06:51;3.50;;;2.20;;
32130;SDS011;18639;50.716;7.086;2023-06-26T02:09:20;3.30;;;2.10;;
32130;SDS011;18639;50.716;7.086;2023-06-26T02:11:45;3.72;;;2.05;;
32130;SDS011;18639;50.716;7.086;2023-06-26T02:14:10;3.30;;;1.90;;
32130;SDS011;18639;50.716;7.086;2023-06-26T02:16:37;4.85;;;2.38;;
32130;SDS011;18639;50.716;7.086;2023-06-26T02:19:02;4.50;;;2.08;;
32130;SDS011;18639;50.716;7.086;2023-06-26T02:21:28;4.90;;;2.03;;
32130;SDS011;18639;50.716;7.086;2023-06-26T02:23:53;4.10;;;2.30;;
32130;SDS011;18639;50.716;7.086;2023-06-26T02:26:19;5.30;;;2.40;;
32130;SDS011;18639;50.716;7.086;2023-06-26T02:28:44;6.20;;;2.72;;
32130;SDS011;18639;50.716;7.086;2023-06-26T02:31:09;3.28;;;1.90;;
32130;SDS011;18639;50.716;7.086;2023-06-26T02:33:35;4.43;;;2.35;;
32130;SDS011;18639;50.716;7.086;2023-06-26T02:36:04;4.10;;;2.20;;
32130;SDS011;18639;50.716;7.086;2023-06-26T02:38:30;5.05;;;2.65;;
32130;SDS011;18639;50.716;7.086;2023-06-26T02:40:57;5.05;;;2.47;;
32130;SDS011;18639;50.716;7.086;2023-06-26T02:43:23;5.47;;;2.45;;
32130;SDS011;18639;50.716;7.086;2023-06-26T02:45:48;4.00;;;2.03;;
32130;SDS011;18639;50.716;7.086;2023-06-26T02:48:14;3.30;;;2.00;;
32130;SDS011;18639;50.716;7.086;2023-06-26T02:50:39;5.57;;;2.70;;
32130;SDS011;18639;50.716;7.086;2023-06-26T02:53:41;4.57;;;2.08;;
32130;SDS011;18639;50.716;7.086;2023-06-26T02:56:26;4.93;;;2.60;;
32130;SDS011;18639;50.716;7.086;2023-06-26T02:59:04;4.15;;;2.30;;
32130;SDS011;18639;50.716;7.086;2023-06-26T03:01:33;4.40;;;2.20;;
32130;SDS011;18639;50.716;7.086;2023-06-26T03:03:58;4.00;;;2.53;;
32130;SDS011;18639;50.716;7.086;2023-06-26T03:06:25;5.22;;;2.53;;
32130;SDS011;18639;50.716;7.086;2023-06-26T03:08:51;3.45;;;2.35;;
32130;SDS011;18639;50.716;7.086;2023-06-26T03:11:16;4.35;;;2.40;;
32130;SDS011;18639;50.716;7.086;2023-06-26T03:13:41;3.47;;;2.03;;
32130;SDS011;18639;50.716;7.086;2023-06-26T03:16:07;3.63;;;2.05;;
32130;SDS011;18639;50.716;7.086;2023-06-26T03:18:33;4.45;;;2.30;;
32130;SDS011;18639;50.716;7.086;2023-06-26T03:20:58;4.20;;;2.28;;
32130;SDS011;18639;50.716;7.086;2023-06-26T03:23:24;4.32;;;2.40;;
32130;SDS011;18639;50.716;7.086;2023-06-26T03:25:50;3.50;;;1.98;;
32130;SDS011;18639;50.716;7.086;2023-06-26T03:28:18;3.42;;;2.55;;
32130;SDS011;18639;50.716;7.086;2023-06-26T03:30:43;3.15;;;2.10;;
32130;SDS011;18639;50.716;7.086;2023-06-26T03:33:11;4.07;;;2.10;;
32130;SDS011;18639;50.716;7.086;2023-06-26T03:35:37;3.20;;;2.10;;
32130;SDS011;18639;50.716;7.086;2023-06-26T03:38:03;4.03;;;2.45;;
32130;SDS011;18639;50.716;7.086;2023-06-26T03:40:29;4.53;;;2.45;;
32130;SDS011;18639;50.716;7.086;2023-06-26T03:43:00;3.22;;;1.95;;
32130;SDS011;18639;50.716;7.086;2023-06-26T03:45:28;4.28;;;2.58;;
32130;SDS011;18639;50.716;7.086;2023-06-26T03:48:01;5.47;;;2.40;;
32130;SDS011;18639;50.716;7.086;2023-06-26T03:50:27;3.00;;;2.25;;
32130;SDS011;18639;50.716;7.086;2023-06-26T03:52:52;5.47;;;2.33;;
32130;SDS011;18639;50.716;7.086;2023-06-26T03:55:19;5.32;;;2.60;;
32130;SDS011;18639;50.716;7.086;2023-06-26T03:57:45;4.28;;;2.38;;
32130;SDS011;18639;50.716;7.086;2023-06-26T04:00:11;3.28;;;2.00;;
32130;SDS011;18639;50.716;7.086;2023-06-26T04:02:37;4.25;;;2.33;;
32130;SDS011;18639;50.716;7.086;2023-06-26T04:05:03;4.88;;;2.47;;
32130;SDS011;18639;50.716;7.086;2023-06-26T04:07:29;3.45;;;2.10;;
32130;SDS011;18639;50.716;7.086;2023-06-26T04:09:56;3.55;;;2.50;;
32130;SDS011;18639;50.716;7.086;2023-06-26T04:15:42;3.28;;;2.08;;
32130;SDS011;18639;50.716;7.086;2023-06-26T04:18:08;3.22;;;2.35;;
32130;SDS011;18639;50.716;7.086;2023-06-26T04:20:38;4.93;;;2.42;;
32130;SDS011;18639;50.716;7.086;2023-06-26T04:23:06;5.35;;;2.40;;
32130;SDS011;18639;50.716;7.086;2023-06-26T04:25:31;4.90;;;2.67;;
32130;SDS011;18639;50.716;7.086;2023-06-26T04:27:56;4.95;;;2.53;;
32130;SDS011;18639;50.716;7.086;2023-06-26T04:30:22;4.63;;;2.20;;
32130;SDS011;18639;50.716;7.086;2023-06-26T04:32:48;5.07;;;2.72;;
32130;SDS011;18639;50.716;7.086;2023-06-26T04:35:16;4.32;;;2.30;;
32130;SDS011;18639;50.716;7.086;2023-06-26T04:37:41;5.32;;;2.40;;
32130;SDS011;18639;50.716;7.086;2023-06-26T04:40:07;4.07;;;2.40;;
32130;SDS011;18639;50.716;7.086;2023-06-26T04:42:34;4.88;;;2.30;;
32130;SDS011;18639;50.716;7.086;2023-06-26T04:45:00;4.13;;;2.45;;
32130;SDS011;18639;50.716;7.086;2023-06-26T04:47:27;5.47;;;2.78;;
32130;SDS011;18639;50.716;7.086;2023-06-26T04:49:52;6.00;;;2.50;;
32130;SDS011;18639;50.716;7.086;2023-06-26T04:52:18;4.82;;;2.72;;
32130;SDS011;18639;50.716;7.086;2023-06-26T04:54:44;5.38;;;2.83;;
32130;SDS011;18639;50.716;7.086;2023-06-26T04:57:09;5.00;;;2.60;;
32130;SDS011;18639;50.716;7.086;2023-06-26T04:59:36;5.65;;;2.67;;
32130;SDS011;18639;50.716;7.086;2023-06-26T05:02:02;5.55;;;2.60;;
32130;SDS011;18639;50.716;7.086;2023-06-26T05:04:28;3.67;;;2.20;;
32130;SDS011;18639;50.716;7.086;2023-06-26T05:06:53;6.78;;;2.42;;
32130;SDS011;18639;50.716;7.086;2023-06-26T05:09:18;3.17;;;2.25;;
32130;SDS011;18639;50.716;7.086;2023-06-26T05:11:44;4.47;;;2.25;;
32130;SDS011;18639;50.716;7.086;2023-06-26T05:14:09;9.25;;;3.20;;
32130;SDS011;18639;50.716;7.086;2023-06-26T05:16:35;4.57;;;2.50;;
32130;SDS011;18639;50.716;7.086;2023-06-26T05:19:01;5.30;;;2.47;;
32130;SDS011;18639;50.716;7.086;2023-06-26T05:21:27;4.05;;;2.10;;
32130;SDS011;18639;50.716;7.086;2023-06-26T05:24:02;4.03;;;2.42;;
32130;SDS011;18639;50.716;7.086;2023-06-26T05:26:28;3.75;;;2.30;;
32130;SDS011;18639;50.716;7.086;2023-06-26T05:35:14;4.85;;;2.08;;
32130;SDS011;18639;50.716;7.086;2023-06-26T05:37:41;3.97;;;2.30;;
32130;SDS011;18639;50.716;7.086;2023-06-26T05:40:07;4.75;;;2.13;;
32130;SDS011;18639;50.716;7.086;2023-06-26T05:42:36;3.13;;;1.75;;
32130;SDS011;18639;50.716;7.086;2023-06-26T05:45:02;3.78;;;1.83;;
32130;SDS011;18639;50.716;7.086;2023-06-26T05:47:27;2.80;;;1.60;;
32130;SDS011;18639;50.716;7.086;2023-06-26T05:49:52;5.03;;;1.98;;
32130;SDS011;18639;50.716;7.086;2023-06-26T05:52:18;3.90;;;1.92;;
32130;SDS011;18639;50.716;7.086;2023-06-26T05:54:43;3.65;;;2.15;;
32130;SDS011;18639;50.716;7.086;2023-06-26T05:57:09;4.00;;;1.70;;
32130;SDS011;18639;50.716;7.086;2023-06-26T05:59:35;3.92;;;1.80;;
32130;SDS011;18639;50.716;7.086;2023-06-26T06:02:04;3.45;;;1.80;;
32130;SDS011;18639;50.716;7.086;2023-06-26T06:04:29;3.50;;;1.85;;
32130;SDS011;18639;50.716;7.086;2023-06-26T06:06:55;4.43;;;2.10;;
32130;SDS011;18639;50.716;7.086;2023-06-26T06:09:20;3.45;;;1.80;;
32130;SDS011;18639;50.716;7.086;2023-06-26T06:11:45;5.32;;;1.90;;
32130;SDS011;18639;50.716;7.086;2023-06-26T06:14:11;3.28;;;2.00;;
32130;SDS011;18639;50.716;7.086;2023-06-26T06:16:36;6.25;;;1.90;;
32130;SDS011;18639;50.716;7.086;2023-06-26T06:19:02;3.40;;;1.67;;
32130;SDS011;18639;50.716;7.086;2023-06-26T06:21:28;3.50;;;1.77;;
32130;SDS011;18639;50.716;7.086;2023-06-26T06:23:53;3.13;;;1.50;;
32130;SDS011;18639;50.716;7.086;2023-06-26T06:26:19;3.75;;;1.65;;
32130;SDS011;18639;50.716;7.086;2023-06-26T06:28:44;4.93;;;2.15;;
32130;SDS011;18639;50.716;7.086;2023-06-26T06:31:09;3.00;;;1.58;;
32130;SDS011;18639;50.716;7.086;2023-06-26T06:33:35;3.90;;;1.58;;
32130;SDS011;18639;50.716;7.086;2023-06-26T06:36:00;3.38;;;1.50;;
32130;SDS011;18639;50.716;7.086;2023-06-26T06:38:25;2.45;;;1.40;;
32130;SDS011;18639;50.716;7.086;2023-06-26T06:40:50;3.35;;;1.70;;
32130;SDS011;18639;50.716;7.086;2023-06-26T06:43:16;3.05;;;1.50;;
32130;SDS011;18639;50.716;7.086;2023-06-26T06:45:41;2.28;;;1.30;;
32130;SDS011;18639;50.716;7.086;2023-06-26T06:48:06;3.97;;;1.70;;
32130;SDS011;18639;50.716;7.086;2023-06-26T06:50:32;2.97;;;1.83;;
32130;SDS011;18639;50.716;7.086;2023-06-26T06:52:57;3.65;;;1.90;;
32130;SDS011;18639;50.716;7.086;2023-06-26T06:55:25;2.78;;;1.40;;
32130;SDS011;18639;50.716;7.086;2023-06-26T06:57:51;3.88;;;1.60;;
32130;SDS011;18639;50.716;7.086;2023-06-26T07:00:16;2.58;;;1.40;;
32130;SDS011;18639;50.716;7.086;2023-06-26T07:02:43;3.38;;;1.63;;
32130;SDS011;18639;50.716;7.086;2023-06-26T07:05:09;4.05;;;1.42;;
32130;SDS011;18639;50.716;7.086;2023-06-26T07:07:35;3.92;;;1.52;;
32130;SDS011;18639;50.716;7.086;2023-06-26T07:10:08;4.68;;;1.65;;
32130;SDS011;18639;50.716;7.086;2023-06-26T07:12:35;3.60;;;1.50;;
32130;SDS011;18639;50.716;7.086;2023-06-26T07:15:02;4.30;;;1.80;;
32130;SDS011;18639;50.716;7.086;2023-06-26T07:17:29;3.47;;;1.67;;
32130;SDS011;18639;50.716;7.086;2023-06-26T07:19:55;3.20;;;1.52;;
32130;SDS011;18639;50.716;7.086;2023-06-26T07:22:21;3.22;;;1.63;;
32130;SDS011;18639;50.716;7.086;2023-06-26T07:24:46;3.10;;;1.50;;
32130;SDS011;18639;50.716;7.086;2023-06-26T07:27:13;5.35;;;1.40;;
32130;SDS011;18639;50.716;7.086;2023-06-26T07:29:39;3.83;;;1.73;;
32130;SDS011;18639;50.716;7.086;2023-06-26T07:32:04;2.55;;;1.60;;
32130;SDS011;18639;50.716;7.086;2023-06-26T07:34:30;2.72;;;1.30;;
32130;SDS011;18639;50.716;7.086;2023-06-26T07:36:55;2.83;;;1.30;;
32130;SDS011;18639;50.716;7.086;2023-06-26T07:39:20;2.75;;;1.52;;
32130;SDS011;18639;50.716;7.086;2023-06-26T07:41:46;3.00;;;1.70;;
32130;SDS011;18639;50.716;7.086;2023-06-26T07:44:11;3.08;;;1.38;;
32130;SDS011;18639;50.716;7.086;2023-06-26T07:46:36;5.75;;;2.00;;
32130;SDS011;18639;50.716;7.086;2023-06-26T07:49:02;3.25;;;1.80;;
32130;SDS011;18639;50.716;7.086;2023-06-26T07:51:27;3.33;;;1.73;;
32130;SDS011;18639;50.716;7.086;2023-06-26T07:53:52;3.92;;;2.13;;
32130;SDS011;18639;50.716;7.086;2023-06-26T07:56:17;3.92;;;1.90;;
32130;SDS011;18639;50.716;7.086;2023-06-26T07:58:43;7.60;;;2.40;;
32130;SDS011;18639;50.716;7.086;2023-06-26T08:01:08;5.05;;;2.60;;
32130;SDS011;18639;50.716;7.086;2023-06-26T08:03:33;4.13;;;2.25;;
32130;SDS011;18639;50.716;7.086;2023-06-26T08:05:59;4.78;;;1.98;;
32130;SDS011;18639;50.716;7.086;2023-06-26T08:08:24;7.53;;;2.60;;
32130;SDS011;18639;50.716;7.086;2023-06-26T08:10:49;5.50;;;2.08;;
32130;SDS011;18639;50.716;7.086;2023-06-26T08:13:14;3.95;;;1.95;;
32130;SDS011;18639;50.716;7.086;2023-06-26T08:15:40;5.63;;;2.25;;
32130;SDS011;18639;50.716;7.086;2023-06-26T08:18:05;6.57;;;2.50;;
32130;SDS011;18639;50.716;7.086;2023-06-26T08:20:30;3.88;;;2.00;;
32130;SDS011;18639;50.716;7.086;2023-06-26T08:22:55;4.45;;;2.17;;
32130;SDS011;18639;50.716;7.086;2023-06-26T08:25:21;4.85;;;2.40;;
32130;SDS011;18639;50.716;7.086;2023-06-26T08:27:46;5.70;;;2.15;;
32130;SDS011;18639;50.716;7.086;2023-06-26T08:30:12;3.10;;;2.10;;
32130;SDS011;18639;50.716;7.086;2023-06-26T08:32:38;5.30;;;2.10;;
32130;SDS011;18639;50.716;7.086;2023-06-26T08:35:04;6.20;;;2.65;;
32130;SDS011;18639;50.716;7.086;2023-06-26T08:37:30;5.05;;;2.45;;
32130;SDS011;18639;50.716;7.086;2023-06-26T08:39:57;3.65;;;2.00;;
32130;SDS011;18639;50.716;7.086;2023-06-26T08:42:25;5.82;;;2.30;;
32130;SDS011;18639;50.716;7.086;2023-06-26T08:44:51;6.88;;;1.85;;
32130;SDS011;18639;50.716;7.086;2023-06-26T08:47:17;4.50;;;2.25;;
32130;SDS011;18639;50.716;7.086;2023-06-26T08:49:47;2.90;;;1.77;;
32130;SDS011;18639;50.716;7.086;2023-06-26T08:52:33;3.28;;;1.50;;
32130;SDS011;18639;50.716;7.086;2023-06-26T08:55:02;3.20;;;1.70;;
32130;SDS011;18639;50.716;7.086;2023-06-26T08:57:31;5.47;;;1.73;;
32130;SDS011;18639;50.716;7.086;2023-06-26T08:59:57;5.90;;;1.80;;
32130;SDS011;18639;50.716;7.086;2023-06-26T09:02:23;3.28;;;2.10;;
32130;SDS011;18639;50.716;7.086;2023-06-26T09:04:49;4.55;;;1.80;;
32130;SDS011;18639;50.716;7.086;2023-06-26T09:07:15;2.58;;;1.75;;
32130;SDS011;18639;50.716;7.086;2023-06-26T09:09:41;3.78;;;2.00;;
32130;SDS011;18639;50.716;7.086;2023-06-26T09:12:08;2.78;;;1.70;;
32130;SDS011;18639;50.716;7.086;2023-06-26T09:14:33;4.60;;;1.63;;
32130;SDS011;18639;50.716;7.086;2023-06-26T09:16:59;5.20;;;2.10;;
32130;SDS011;18639;50.716;7.086;2023-06-26T09:19:24;3.85;;;2.05;;
32130;SDS011;18639;50.716;7.086;2023-06-26T09:21:50;5.93;;;2.10;;
32130;SDS011;18639;50.716;7.086;2023-06-26T09:24:19;2.55;;;1.70;;
32130;SDS011;18639;50.716;7.086;2023-06-26T09:26:46;4.88;;;1.60;;
32130;SDS011;18639;50.716;7.086;2023-06-26T09:29:11;4.22;;;2.05;;
32130;SDS011;18639;50.716;7.086;2023-06-26T09:31:39;2.75;;;1.55;;
32130;SDS011;18639;50.716;7.086;2023-06-26T09:34:05;2.40;;;1.40;;
32130;SDS011;18639;50.716;7.086;2023-06-26T09:36:31;3.55;;;1.30;;
32130;SDS011;18639;50.716;7.086;2023-06-26T09:38:58;4.22;;;1.75;;
32130;SDS011;18639;50.716;7.086;2023-06-26T09:41:26;2.50;;;1.50;;
32130;SDS011;18639;50.716;7.086;2023-06-26T09:43:52;3.15;;;1.25;;
32130;SDS011;18639;50.716;7.086;2023-06-26T09:46:24;5.03;;;1.58;;
32130;SDS011;18639;50.716;7.086;2023-06-26T09:49:06;1.75;;;1.23;;
32130;SDS011;18639;50.716;7.086;2023-06-26T09:51:36;3.75;;;1.40;;
32130;SDS011;18639;50.716;7.086;2023-06-26T09:54:02;2.00;;;1.23;;
32130;SDS011;18639;50.716;7.086;2023-06-26T09:56:29;6.60;;;2.13;;
32130;SDS011;18639;50.716;7.086;2023-06-26T09:58:56;2.97;;;1.45;;
32130;SDS011;18639;50.716;7.086;2023-06-26T10:01:23;2.08;;;1.40;;
32130;SDS011;18639;50.716;7.086;2023-06-26T10:03:49;1.77;;;1.33;;
32130;SDS011;18639;50.716;7.086;2023-06-26T10:06:14;5.05;;;1.70;;
32130;SDS011;18639;50.716;7.086;2023-06-26T10:08:44;4.95;;;1.50;;
32130;SDS011;18639;50.716;7.086;2023-06-26T10:11:11;2.15;;;1.10;;
32130;SDS011;18639;50.716;7.086;2023-06-26T10:13:43;3.53;;;1.35;;
32130;SDS011;18639;50.716;7.086;2023-06-26T10:16:12;2.08;;;1.30;;
32130;SDS011;18639;50.716;7.086;2023-06-26T10:18:40;1.75;;;1.10;;
32130;SDS011;18639;50.716;7.086;2023-06-26T10:21:06;2.15;;;1.20;;
32130;SDS011;18639;50.716;7.086;2023-06-26T10:23:33;3.03;;;1.20;;
32130;SDS011;18639;50.716;7.086;2023-06-26T10:26:01;1.90;;;1.10;;
32130;SDS011;18639;50.716;7.086;2023-06-26T10:28:27;1.92;;;1.30;;
32130;SDS011;18639;50.716;7.086;2023-06-26T10:30:55;1.98;;;1.00;;
32130;SDS011;18639;50.716;7.086;2023-06-26T10:33:22;2.65;;;0.98;;
32130;SDS011;18639;50.716;7.086;2023-06-26T10:35:48;2.50;;;1.48;;
32130;SDS011;18639;50.716;7.086;2023-06-26T10:38:14;1.88;;;1.00;;
32130;SDS011;18639;50.716;7.086;2023-06-26T10:40:46;2.85;;;1.10;;
32130;SDS011;18639;50.716;7.086;2023-06-26T10:43:16;3.83;;;1.38;;
32130;SDS011;18639;50.716;7.086;2023-06-26T10:45:44;2.45;;;0.98;;
32130;SDS011;18639;50.716;7.086;2023-06-26T10:48:12;2.20;;;1.00;;
32130;SDS011;18639;50.716;7.086;2023-06-26T10:50:39;3.20;;;1.10;;
32130;SDS011;18639;50.716;7.086;2023-06-26T10:56:00;3.05;;;0.80;;
32130;SDS011;18639;50.716;7.086;2023-06-26T10:58:28;1.83;;;1.00;;
32130;SDS011;18639;50.716;7.086;2023-06-26T11:03:37;2.00;;;0.60;;
32130;SDS011;18639;50.716;7.086;2023-06-26T11:08:47;3.20;;;1.23;;
32130;SDS011;18639;50.716;7.086;2023-06-26T11:11:14;3.10;;;1.15;;
32130;SDS011;18639;50.716;7.086;2023-06-26T11:13:40;1.40;;;0.77;;
32130;SDS011;18639;50.716;7.086;2023-06-26T11:16:06;2.05;;;1.13;;
32130;SDS011;18639;50.716;7.086;2023-06-26T11:18:32;6.28;;;1.17;;
32130;SDS011;18639;50.716;7.086;2023-06-26T11:23:49;2.15;;;1.05;;
32130;SDS011;18639;50.716;7.086;2023-06-26T11:26:19;1.17;;;0.90;;
32130;SDS011;18639;50.716;7.086;2023-06-26T11:28:49;1.75;;;0.85;;
32130;SDS011;18639;50.716;7.086;2023-06-26T11:31:24;2.25;;;0.70;;
32130;SDS011;18639;50.716;7.086;2023-06-26T11:33:51;1.50;;;0.75;;
32130;SDS011;18639;50.716;7.086;2023-06-26T11:36:17;1.55;;;0.75;;
32130;SDS011;18639;50.716;7.086;2023-06-26T11:38:42;1.73;;;0.80;;
32130;SDS011;18639;50.716;7.086;2023-06-26T11:41:08;1.42;;;0.88;;
32130;SDS011;18639;50.716;7.086;2023-06-26T11:43:33;1.38;;;0.70;;
32130;SDS011;18639;50.716;7.086;2023-06-26T11:45:59;2.33;;;0.90;;
32130;SDS011;18639;50.716;7.086;2023-06-26T11:48:25;1.00;;;0.75;;
32130;SDS011;18639;50.716;7.086;2023-06-26T11:50:50;1.58;;;0.70;;
32130;SDS011;18639;50.716;7.086;2023-06-26T11:53:19;1.05;;;0.60;;
32130;SDS011;18639;50.716;7.086;2023-06-26T11:55:44;1.27;;;0.77;;
32130;SDS011;18639;50.716;7.086;2023-06-26T11:58:10;1.08;;;0.88;;
32130;SDS011;18639;50.716;7.086;2023-06-26T12:00:35;1.85;;;0.90;;
32130;SDS011;18639;50.716;7.086;2023-06-26T12:03:06;1.73;;;0.82;;
32130;SDS011;18639;50.716;7.086;2023-06-26T12:05:31;1.75;;;1.13;;
32130;SDS011;18639;50.716;7.086;2023-06-26T12:07:57;2.38;;;1.10;;
32130;SDS011;18639;50.716;7.086;2023-06-26T12:10:24;1.95;;;1.10;;
32130;SDS011;18639;50.716;7.086;2023-06-26T12:12:50;2.25;;;1.05;;
32130;SDS011;18639;50.716;7.086;2023-06-26T12:15:15;1.95;;;1.00;;
32130;SDS011;18639;50.716;7.086;2023-06-26T12:17:41;5.57;;;1.20;;
32130;SDS011;18639;50.716;7.086;2023-06-26T12:20:17;3.90;;;1.58;;
32130;SDS011;18639;50.716;7.086;2023-06-26T12:22:47;1.42;;;1.05;;
32130;SDS011;18639;50.716;7.086;2023-06-26T12:25:13;2.15;;;0.80;;
32130;SDS011;18639;50.716;7.086;2023-06-26T12:27:39;1.00;;;0.73;;
32130;SDS011;18639;50.716;7.086;2023-06-26T12:30:05;3.10;;;0.70;;
32130;SDS011;18639;50.716;7.086;2023-06-26T12:32:31;1.15;;;0.70;;
32130;SDS011;18639;50.716;7.086;2023-06-26T12:34:57;4.60;;;1.10;;
32130;SDS011;18639;50.716;7.086;2023-06-26T12:37:23;1.40;;;0.82;;
32130;SDS011;18639;50.716;7.086;2023-06-26T12:39:50;1.13;;;0.80;;
32130;SDS011;18639;50.716;7.086;2023-06-26T12:42:21;1.77;;;0.98;;
32130;SDS011;18639;50.716;7.086;2023-06-26T12:44:51;1.13;;;0.77;;
32130;SDS011;18639;50.716;7.086;2023-06-26T12:47:17;2.20;;;1.10;;
32130;SDS011;18639;50.716;7.086;2023-06-26T12:49:50;1.92;;;0.85;;
32130;SDS011;18639;50.716;7.086;2023-06-26T12:52:16;2.83;;;0.90;;
32130;SDS011;18639;50.716;7.086;2023-06-26T12:54:44;2.25;;;0.90;;
32130;SDS011;18639;50.716;7.086;2023-06-26T12:57:14;1.88;;;0.90;;
32130;SDS011;18639;50.716;7.086;2023-06-26T12:59:39;1.17;;;0.73;;
32130;SDS011;18639;50.716;7.086;2023-06-26T13:02:05;1.05;;;0.80;;
32130;SDS011;18639;50.716;7.086;2023-06-26T13:04:31;2.10;;;1.02;;
32130;SDS011;18639;50.716;7.086;2023-06-26T13:06:56;1.90;;;1.08;;
32130;SDS011;18639;50.716;7.086;2023-06-26T13:09:23;2.53;;;1.20;;
32130;SDS011;18639;50.716;7.086;2023-06-26T13:11:50;1.77;;;1.08;;
32130;SDS011;18639;50.716;7.086;2023-06-26T13:14:18;1.50;;;0.88;;
32130;SDS011;18639;50.716;7.086;2023-06-26T13:16:44;1.25;;;0.98;;
32130;SDS011;18639;50.716;7.086;2023-06-26T13:19:09;2.80;;;1.00;;
32130;SDS011;18639;50.716;7.086;2023-06-26T13:21:35;1.52;;;0.80;;
32130;SDS011;18639;50.716;7.086;2023-06-26T13:24:00;3.60;;;1.30;;
32130;SDS011;18639;50.716;7.086;2023-06-26T13:26:26;1.73;;;1.00;;
32130;SDS011;18639;50.716;7.086;2023-06-26T13:28:53;1.52;;;0.90;;
32130;SDS011;18639;50.716;7.086;2023-06-26T13:31:19;2.08;;;1.00;;
32130;SDS011;18639;50.716;7.086;2023-06-26T13:33:46;1.30;;;0.80;;
32130;SDS011;18639;50.716;7.086;2023-06-26T13:36:13;1.50;;;1.05;;
32130;SDS011;18639;50.716;7.086;2023-06-26T13:38:39;2.83;;;0.90;;
32130;SDS011;18639;50.716;7.086;2023-06-26T13:41:04;1.98;;;1.00;;
32130;SDS011;18639;50.716;7.086;2023-06-26T13:43:29;1.20;;;0.90;;
32130;SDS011;18639;50.716;7.086;2023-06-26T13:45:55;2.78;;;1.00;;
32130;SDS011;18639;50.716;7.086;2023-06-26T13:48:20;1.67;;;0.93;;
32130;SDS011;18639;50.716;7.086;2023-06-26T13:50:47;2.78;;;1.15;;
32130;SDS011;18639;50.716;7.086;2023-06-26T13:53:12;1.27;;;0.90;;
32130;SDS011;18639;50.716;7.086;2023-06-26T13:55:38;1.50;;;1.02;;
32130;SDS011;18639;50.716;7.086;2023-06-26T13:58:05;1.52;;;0.80;;
32130;SDS011;18639;50.716;7.086;2023-06-26T14:00:31;3.08;;;0.98;;
32130;SDS011;18639;50.716;7.086;2023-06-26T14:02:58;1.67;;;1.20;;
32130;SDS011;18639;50.716;7.086;2023-06-26T14:05:24;2.92;;;1.15;;
32130;SDS011;18639;50.716;7.086;2023-06-26T14:07:49;1.23;;;0.80;;
32130;SDS011;18639;50.716;7.086;2023-06-26T14:10:15;2.40;;;1.10;;
32130;SDS011;18639;50.716;7.086;2023-06-26T14:12:40;3.35;;;1.08;;
32130;SDS011;18639;50.716;7.086;2023-06-26T14:15:06;1.92;;;0.80;;
32130;SDS011;18639;50.716;7.086;2023-06-26T14:17:32;1.63;;;0.90;;
32130;SDS011;18639;50.716;7.086;2023-06-26T14:20:00;2.60;;;1.20;;
32130;SDS011;18639;50.716;7.086;2023-06-26T14:22:25;1.20;;;0.80;;
32130;SDS011;18639;50.716;7.086;2023-06-26T14:24:51;1.08;;;0.77;;
32130;SDS011;18639;50.716;7.086;2023-06-26T14:27:16;1.00;;;0.80;;
32130;SDS011;18639;50.716;7.086;2023-06-26T14:29:41;2.28;;;1.05;;
32130;SDS011;18639;50.716;7.086;2023-06-26T14:32:06;1.02;;;0.77;;
32130;SDS011;18639;50.716;7.086;2023-06-26T14:34:32;3.20;;;0.80;;
32130;SDS011;18639;50.716;7.086;2023-06-26T14:36:57;1.38;;;0.80;;
32130;SDS011;18639;50.716;7.086;2023-06-26T14:39:23;1.42;;;0.95;;
32130;SDS011;18639;50.716;7.086;2023-06-26T14:41:48;0.82;;;0.80;;
32130;SDS011;18639;50.716;7.086;2023-06-26T14:44:14;1.33;;;0.80;;
32130;SDS011;18639;50.716;7.086;2023-06-26T14:46:39;3.28;;;1.08;;
32130;SDS011;18639;50.716;7.086;2023-06-26T14:49:05;2.25;;;0.80;;
32130;SDS011;18639;50.716;7.086;2023-06-26T14:51:30;1.90;;;0.80;;
32130;SDS011;18639;50.716;7.086;2023-06-26T14:53:56;3.42;;;1.00;;
32130;SDS011;18639;50.716;7.086;2023-06-26T14:56:21;3.33;;;0.80;;
32130;SDS011;18639;50.716;7.086;2023-06-26T14:58:46;1.95;;;0.75;;
32130;SDS011;18639;50.716;7.086;2023-06-26T15:01:12;2.92;;;0.77;;
32130;SDS011;18639;50.716;7.086;2023-06-26T15:03:40;2.00;;;0.93;;
32130;SDS011;18639;50.716;7.086;2023-06-26T15:06:06;3.20;;;0.68;;
32130;SDS011;18639;50.716;7.086;2023-06-26T15:08:31;4.22;;;0.80;;
32130;SDS011;18639;50.716;7.086;2023-06-26T15:10:56;1.20;;;0.70;;
32130;SDS011;18639;50.716;7.086;2023-06-26T15:13:22;0.82;;;0.60;;
32130;SDS011;18639;50.716;7.086;2023-06-26T15:15:47;1.02;;;0.70;;
32130;SDS011;18639;50.716;7.086;2023-06-26T15:18:12;0.88;;;0.75;;
32130;SDS011;18639;50.716;7.086;2023-06-26T15:20:37;1.77;;;0.70;;
32130;SDS011;18639;50.716;7.086;2023-06-26T15:23:03;1.02;;;0.63;;